createdAt,value
2023-02-07T00:00:46.014Z,99.99
2023-02-07T00:01:46.028Z,99.99
2023-02-07T00:02:45.927Z,99.99
2023-02-07T00:03:45.872Z,99.99
2023-02-07T00:04:45.828Z,99.99
2023-02-07T00:05:45.772Z,99.99
2023-02-07T00:06:45.734Z,99.99
2023-02-07T00:07:45.689Z,99.99
2023-02-07T00:08:45.645Z,99.99
2023-02-07T00:09:45.602Z,99.99
2023-02-07T00:10:45.541Z,99.99
2023-02-07T00:11:45.504Z,99.99
2023-02-07T00:12:45.457Z,99.99
2023-02-07T00:13:45.395Z,99.99
2023-02-07T00:14:45.374Z,99.99
2023-02-07T00:15:45.316Z,99.99
2023-02-07T00:16:45.280Z,99.99
2023-02-07T00:17:45.204Z,99.99
2023-02-07T00:18:45.164Z,99.99
2023-02-07T00:19:45.108Z,99.99
2023-02-07T00:20:45.079Z,99.99
2023-02-07T00:21:45.022Z,99.99
2023-02-07T00:22:44.970Z,99.99
2023-02-07T00:23:44.916Z,99.99
2023-02-07T00:24:44.875Z,99.99
2023-02-07T00:25:44.822Z,99.99
2023-02-07T00:26:44.791Z,99.99
2023-02-07T00:27:44.897Z,99.99
2023-02-07T00:28:44.721Z,99.99
2023-02-07T00:29:44.633Z,99.99
2023-02-07T00:30:44.683Z,99.99
2023-02-07T00:31:44.591Z,99.99
2023-02-07T00:32:44.506Z,99.99
2023-02-07T00:33:44.470Z,99.99
2023-02-07T00:34:44.398Z,99.99
2023-02-07T00:35:44.350Z,99.99
2023-02-07T00:36:44.302Z,99.99
2023-02-07T00:37:44.259Z,99.99
2023-02-07T00:38:44.224Z,99.99
2023-02-07T00:39:44.171Z,99.99
2023-02-07T00:40:44.124Z,99.99
2023-02-07T00:41:44.073Z,99.99
2023-02-07T00:42:44.025Z,99.99
2023-02-07T00:43:43.970Z,99.99
2023-02-07T00:44:43.929Z,99.99
2023-02-07T00:45:43.909Z,99.99
2023-02-07T00:46:43.842Z,99.99
2023-02-07T00:47:43.778Z,99.99
2023-02-07T00:48:43.737Z,99.99
2023-02-07T00:49:43.685Z,99.99
2023-02-07T00:50:43.644Z,99.99
2023-02-07T00:51:43.600Z,99.99
2023-02-07T00:52:43.543Z,99.99
2023-02-07T00:53:43.497Z,99.99
2023-02-07T00:54:43.449Z,99.99
2023-02-07T00:55:43.400Z,99.99
2023-02-07T00:56:43.352Z,99.99
2023-02-07T00:57:43.316Z,99.99
2023-02-07T00:58:43.259Z,99.99
2023-02-07T00:59:43.208Z,99.99
2023-02-07T01:00:43.181Z,99.99
2023-02-07T01:01:43.121Z,99.99
2023-02-07T01:02:43.069Z,99.99
2023-02-07T01:03:43.029Z,99.99
2023-02-07T01:04:43.010Z,99.99
2023-02-07T01:05:42.926Z,99.99
2023-02-07T01:06:42.888Z,99.99
2023-02-07T01:07:42.835Z,99.99
2023-02-07T01:08:42.801Z,99.99
2023-02-07T01:09:42.733Z,99.99
2023-02-07T01:10:42.700Z,99.99
2023-02-07T01:11:42.644Z,99.99
2023-02-07T01:12:42.598Z,99.99
2023-02-07T01:13:42.546Z,99.99
2023-02-07T01:14:42.510Z,99.99
2023-02-07T01:15:42.472Z,99.99
2023-02-07T01:16:42.402Z,99.99
2023-02-07T01:17:42.357Z,99.99
2023-02-07T01:18:42.310Z,99.99
2023-02-07T01:19:42.273Z,99.99
2023-02-07T01:20:42.246Z,99.99
2023-02-07T01:21:42.167Z,99.99
2023-02-07T01:22:42.121Z,99.99
2023-02-07T01:23:42.082Z,99.99
2023-02-07T01:24:42.027Z,99.99
2023-02-07T01:25:41.977Z,99.99
2023-02-07T01:26:41.939Z,99.99
2023-02-07T01:27:41.889Z,99.99
2023-02-07T01:28:41.842Z,99.99
2023-02-07T01:29:41.796Z,99.99
2023-02-07T01:30:41.793Z,99.99
2023-02-07T01:31:41.785Z,99.99
2023-02-07T01:32:41.647Z,99.99
2023-02-07T01:33:41.594Z,99.99
2023-02-07T01:34:41.555Z,99.99
2023-02-07T01:35:41.508Z,99.99
2023-02-07T01:36:41.470Z,99.99
2023-02-07T01:37:41.401Z,99.99
2023-02-07T01:38:41.356Z,99.99
2023-02-07T01:39:41.307Z,99.99
2023-02-07T01:40:41.255Z,99.99
2023-02-07T01:41:41.218Z,99.99
2023-02-07T01:42:41.166Z,99.99
2023-02-07T01:43:41.112Z,99.99
2023-02-07T01:44:41.067Z,99.99
2023-02-07T01:45:41.283Z,99.99
2023-02-07T01:46:40.972Z,99.99
2023-02-07T01:47:40.932Z,99.99
2023-02-07T01:48:40.874Z,99.99
2023-02-07T01:49:40.823Z,99.99
2023-02-07T01:50:40.786Z,99.99
2023-02-07T01:51:40.729Z,99.99
2023-02-07T01:52:40.683Z,99.99
2023-02-07T01:53:40.658Z,99.99
2023-02-07T01:54:40.593Z,99.99
2023-02-07T01:55:40.779Z,99.99
2023-02-07T01:56:40.497Z,99.99
2023-02-07T01:57:40.445Z,99.99
2023-02-07T01:58:40.398Z,99.99
2023-02-07T01:59:40.359Z,99.99
2023-02-07T02:00:40.306Z,99.99
2023-02-07T02:01:40.285Z,99.99
2023-02-07T02:02:40.243Z,99.99
2023-02-07T02:03:40.158Z,99.99
2023-02-07T02:04:40.116Z,99.99
2023-02-07T02:05:40.168Z,99.99
2023-02-07T02:06:40.018Z,99.99
2023-02-07T02:07:39.961Z,99.99
2023-02-07T02:08:39.919Z,99.99
2023-02-07T02:09:39.870Z,99.99
2023-02-07T02:10:39.822Z,99.99
2023-02-07T02:11:39.787Z,99.99
2023-02-07T02:12:39.730Z,99.99
2023-02-07T02:13:39.683Z,99.99
2023-02-07T02:14:39.635Z,99.99
2023-02-07T02:15:39.929Z,99.99
2023-02-07T02:16:39.539Z,99.99
2023-02-07T02:17:39.488Z,99.99
2023-02-07T02:18:39.446Z,99.99
2023-02-07T02:19:39.398Z,99.99
2023-02-07T02:20:39.363Z,99.99
2023-02-07T02:21:39.341Z,99.99
2023-02-07T02:22:39.252Z,99.99
2023-02-07T02:23:39.201Z,99.99
2023-02-07T02:24:39.162Z,99.99
2023-02-07T02:25:39.339Z,99.99
2023-02-07T02:26:39.060Z,99.99
2023-02-07T02:27:39.019Z,99.99
2023-02-07T02:28:38.971Z,99.99
2023-02-07T02:29:38.917Z,99.99
2023-02-07T02:30:38.899Z,99.99
2023-02-07T02:31:38.887Z,99.99
2023-02-07T02:32:38.788Z,99.99
2023-02-07T02:33:38.724Z,99.99
2023-02-07T02:34:38.687Z,99.99
2023-02-07T02:35:38.980Z,99.99
2023-02-07T02:36:38.592Z,99.99
2023-02-07T02:37:38.534Z,99.99
2023-02-07T02:38:38.496Z,99.99
2023-02-07T02:39:38.439Z,99.99
2023-02-07T02:40:38.390Z,99.99
2023-02-07T02:41:38.360Z,99.99
2023-02-07T02:42:38.294Z,99.99
2023-02-07T02:43:38.265Z,99.99
2023-02-07T02:44:38.201Z,99.99
2023-02-07T02:45:38.534Z,99.99
2023-02-07T02:46:38.113Z,99.99
2023-02-07T02:47:38.064Z,99.99
2023-02-07T02:48:38.044Z,99.99
2023-02-07T02:49:37.959Z,99.99
2023-02-07T02:50:37.914Z,99.99
2023-02-07T02:51:37.867Z,99.99
2023-02-07T02:52:50.192Z,99.99
2023-02-07T02:53:37.794Z,99.99
2023-02-07T02:54:37.735Z,99.99
2023-02-07T02:55:38.017Z,99.99
2023-02-07T02:56:37.625Z,99.99
2023-02-07T02:57:37.591Z,99.99
2023-02-07T02:58:37.532Z,99.99
2023-02-07T02:59:37.501Z,99.99
2023-02-07T03:00:37.438Z,99.99
2023-02-07T03:01:37.404Z,99.99
2023-02-07T03:02:37.340Z,99.99
2023-02-07T03:03:37.293Z,99.99
2023-02-07T03:04:37.249Z,99.99
2023-02-07T03:05:37.525Z,99.99
2023-02-07T03:06:37.149Z,99.99
2023-02-07T03:07:37.105Z,99.99
2023-02-07T03:08:38.768Z,99.99
2023-02-07T03:09:37.012Z,99.99
2023-02-07T03:10:36.957Z,99.99
2023-02-07T03:11:36.926Z,99.99
2023-02-07T03:12:36.862Z,99.99
2023-02-07T03:13:36.819Z,99.99
2023-02-07T03:14:36.766Z,99.99
2023-02-07T03:15:37.086Z,99.99
2023-02-07T03:16:36.689Z,99.99
2023-02-07T03:17:36.627Z,99.99
2023-02-07T03:18:36.575Z,99.99
2023-02-07T03:19:36.529Z,99.99
2023-02-07T03:20:36.477Z,99.99
2023-02-07T03:21:36.433Z,99.99
2023-02-07T03:22:36.391Z,99.99
2023-02-07T03:23:36.335Z,99.99
2023-02-07T03:24:36.287Z,99.99
2023-02-07T03:25:36.636Z,99.99
2023-02-07T03:26:36.190Z,99.99
2023-02-07T03:27:36.140Z,99.99
2023-02-07T03:28:36.103Z,99.99
2023-02-07T03:29:36.044Z,99.99
2023-02-07T03:30:35.999Z,99.99
2023-02-07T03:31:35.988Z,99.99
2023-02-07T03:32:35.898Z,99.99
2023-02-07T03:33:35.855Z,99.99
2023-02-07T03:34:35.812Z,99.99
2023-02-07T03:35:35.985Z,99.99
2023-02-07T03:36:35.706Z,99.99
2023-02-07T03:37:35.659Z,99.99
2023-02-07T03:38:35.621Z,99.99
2023-02-07T03:39:35.576Z,99.99
2023-02-07T03:40:35.513Z,99.99
2023-02-07T03:41:35.485Z,99.99
2023-02-07T03:42:35.432Z,99.99
2023-02-07T03:43:35.374Z,99.99
2023-02-07T03:44:35.335Z,99.99
2023-02-07T03:45:35.336Z,99.99
2023-02-07T03:46:35.238Z,99.99
2023-02-07T03:47:35.180Z,99.99
2023-02-07T03:48:35.130Z,99.99
2023-02-07T03:49:35.084Z,99.99
2023-02-07T03:50:35.047Z,99.99
2023-02-07T03:51:34.986Z,99.99
2023-02-07T03:52:34.943Z,99.99
2023-02-07T03:53:34.898Z,99.99
2023-02-07T03:54:34.843Z,99.99
2023-02-07T03:55:34.806Z,99.99
2023-02-07T03:56:34.747Z,99.99
2023-02-07T03:57:34.702Z,99.99
2023-02-07T03:58:34.651Z,99.99
2023-02-07T03:59:34.606Z,99.99
2023-02-07T04:00:34.555Z,99.99
2023-02-07T04:01:34.524Z,99.99
2023-02-07T04:02:34.462Z,99.99
2023-02-07T04:03:34.420Z,99.99
2023-02-07T04:04:34.364Z,99.99
2023-02-07T04:05:34.322Z,99.99
2023-02-07T04:06:34.268Z,99.99
2023-02-07T04:07:34.232Z,99.99
2023-02-07T04:08:34.172Z,99.99
2023-02-07T04:09:34.128Z,99.99
2023-02-07T04:10:34.080Z,99.99
2023-02-07T04:11:34.031Z,99.99
2023-02-07T04:12:34.004Z,99.99
2023-02-07T04:13:33.945Z,99.99
2023-02-07T04:14:33.890Z,99.99
2023-02-07T04:15:33.849Z,99.99
2023-02-07T04:16:33.867Z,99.99
2023-02-07T04:17:33.747Z,99.99
2023-02-07T04:18:33.697Z,99.99
2023-02-07T04:19:33.660Z,99.99
2023-02-07T04:20:33.600Z,99.99
2023-02-07T04:21:33.549Z,99.99
2023-02-07T04:22:33.504Z,99.99
2023-02-07T04:23:33.459Z,99.99
2023-02-07T04:24:33.415Z,99.99
2023-02-07T04:25:33.359Z,99.99
2023-02-07T04:26:33.309Z,99.99
2023-02-07T04:27:33.272Z,99.99
2023-02-07T04:28:33.214Z,99.99
2023-02-07T04:29:33.165Z,99.99
2023-02-07T04:30:33.147Z,99.99
2023-02-07T04:31:33.115Z,99.99
2023-02-07T04:32:33.020Z,99.99
2023-02-07T04:33:32.984Z,99.99
2023-02-07T04:34:32.924Z,99.99
2023-02-07T04:35:32.881Z,99.99
2023-02-07T04:36:32.846Z,99.99
2023-02-07T04:37:32.780Z,99.99
2023-02-07T04:38:32.727Z,99.99
2023-02-07T04:39:32.683Z,99.99
2023-02-07T04:40:32.637Z,99.99
2023-02-07T04:41:32.595Z,99.99
2023-02-07T04:42:32.544Z,99.99
2023-02-07T04:43:32.490Z,99.99
2023-02-07T04:44:32.438Z,99.99
2023-02-07T04:45:32.408Z,99.99
2023-02-07T04:46:32.356Z,99.99
2023-02-07T04:47:32.296Z,99.99
2023-02-07T04:48:32.246Z,99.60
2023-02-07T04:49:34.230Z,99.99
2023-02-07T04:50:32.151Z,99.99
2023-02-07T04:51:32.114Z,99.60
2023-02-07T04:52:32.062Z,99.99
2023-02-07T04:53:32.049Z,99.38
2023-02-07T04:54:31.979Z,99.38
2023-02-07T04:55:31.913Z,99.80
2023-02-07T04:56:31.864Z,99.80
2023-02-07T04:57:31.832Z,99.70
2023-02-07T04:58:31.773Z,99.91
2023-02-07T04:59:31.720Z,99.44
2023-02-07T05:00:31.697Z,99.87
2023-02-07T05:01:31.633Z,99.44
2023-02-07T05:02:31.601Z,99.44
2023-02-07T05:03:31.549Z,99.82
2023-02-07T05:04:31.489Z,99.15
2023-02-07T05:05:31.444Z,99.98
2023-02-07T05:06:31.387Z,99.99
2023-02-07T05:07:31.340Z,99.99
2023-02-07T05:08:31.306Z,99.84
2023-02-07T05:09:31.248Z,98.89
2023-02-07T05:10:31.197Z,99.15
2023-02-07T05:11:31.157Z,98.79
2023-02-07T05:12:31.106Z,99.25
2023-02-07T05:13:31.060Z,99.35
2023-02-07T05:14:31.016Z,99.77
2023-02-07T05:15:30.958Z,99.10
2023-02-07T05:16:30.936Z,99.21
2023-02-07T05:17:30.863Z,99.25
2023-02-07T05:18:30.831Z,99.25
2023-02-07T05:19:30.766Z,98.94
2023-02-07T05:20:30.743Z,98.83
2023-02-07T05:21:30.675Z,99.35
2023-02-07T05:22:30.624Z,98.83
2023-02-07T05:23:30.578Z,99.35
2023-02-07T05:24:30.529Z,98.94
2023-02-07T05:25:30.487Z,98.89
2023-02-07T05:26:30.442Z,98.94
2023-02-07T05:27:30.384Z,98.31
2023-02-07T05:28:30.337Z,99.31
2023-02-07T05:29:30.293Z,99.00
2023-02-07T05:30:30.360Z,99.21
2023-02-07T05:31:30.263Z,98.95
2023-02-07T05:32:30.162Z,99.16
2023-02-07T05:33:30.668Z,98.43
2023-02-07T05:34:30.049Z,99.37
2023-02-07T05:35:30.004Z,98.58
2023-02-07T05:36:29.951Z,99.21
2023-02-07T05:37:29.908Z,98.95
2023-02-07T05:38:29.872Z,99.48
2023-02-07T05:39:29.810Z,99.58
2023-02-07T05:40:29.758Z,99.05
2023-02-07T05:41:29.715Z,99.63
2023-02-07T05:42:29.670Z,99.32
2023-02-07T05:43:29.619Z,98.85
2023-02-07T05:44:29.583Z,98.18
2023-02-07T05:45:29.523Z,98.91
2023-02-07T05:46:29.474Z,98.28
2023-02-07T05:47:29.429Z,98.80
2023-02-07T05:48:29.382Z,98.54
2023-02-07T05:49:29.336Z,98.28
2023-02-07T05:50:29.295Z,98.64
2023-02-07T05:51:29.255Z,99.10
2023-02-07T05:52:29.185Z,98.58
2023-02-07T05:53:29.140Z,98.68
2023-02-07T05:54:29.095Z,98.58
2023-02-07T05:55:29.045Z,99.04
2023-02-07T05:56:28.997Z,99.04
2023-02-07T05:57:28.962Z,98.52
2023-02-07T05:58:28.904Z,98.46
2023-02-07T05:59:28.856Z,98.56
2023-02-07T06:00:28.801Z,98.72
2023-02-07T06:01:28.760Z,99.57
2023-02-07T06:02:28.729Z,98.67
2023-02-07T06:03:28.693Z,99.19
2023-02-07T06:04:28.611Z,99.46
2023-02-07T06:05:28.571Z,99.57
2023-02-07T06:06:28.521Z,98.72
2023-02-07T06:07:28.470Z,98.83
2023-02-07T06:08:28.418Z,99.48
2023-02-07T06:09:28.390Z,99.00
2023-02-07T06:10:28.323Z,99.00
2023-02-07T06:11:28.280Z,99.52
2023-02-07T06:12:28.228Z,98.95
2023-02-07T06:13:28.181Z,98.95
2023-02-07T06:14:28.137Z,98.95
2023-02-07T06:15:28.111Z,98.74
2023-02-07T06:16:28.036Z,98.85
2023-02-07T06:17:27.999Z,98.54
2023-02-07T06:18:27.942Z,97.59
2023-02-07T06:19:27.896Z,97.69
2023-02-07T06:20:27.855Z,98.68
2023-02-07T06:21:37.644Z,98.74
2023-02-07T06:22:27.756Z,98.43
2023-02-07T06:23:27.715Z,98.43
2023-02-07T06:24:27.659Z,98.74
2023-02-07T06:25:27.611Z,98.22
2023-02-07T06:26:27.625Z,98.54
2023-02-07T06:27:27.544Z,99.21
2023-02-07T06:28:27.459Z,98.58
2023-02-07T06:29:27.424Z,98.68
2023-02-07T06:30:27.376Z,98.89
2023-02-07T06:31:27.352Z,98.83
2023-02-07T06:32:27.278Z,98.72
2023-02-07T06:33:27.246Z,98.94
2023-02-07T06:34:27.186Z,98.98
2023-02-07T06:35:27.135Z,98.88
2023-02-07T06:36:27.099Z,99.19
2023-02-07T06:37:27.039Z,98.98
2023-02-07T06:38:26.989Z,99.08
2023-02-07T06:39:26.960Z,99.34
2023-02-07T06:40:26.895Z,99.34
2023-02-07T06:41:26.852Z,99.76
2023-02-07T06:42:26.804Z,99.60
2023-02-07T06:43:26.753Z,99.66
2023-02-07T06:44:26.705Z,99.24
2023-02-07T06:45:26.672Z,98.61
2023-02-07T06:46:26.708Z,98.71
2023-02-07T06:47:26.569Z,98.39
2023-02-07T06:48:26.532Z,98.75
2023-02-07T06:49:26.469Z,99.28
2023-02-07T06:50:26.420Z,99.60
2023-02-07T06:51:26.381Z,99.76
2023-02-07T06:52:26.327Z,99.49
2023-02-07T06:53:26.276Z,98.55
2023-02-07T06:54:26.235Z,98.13
2023-02-07T06:55:26.175Z,98.71
2023-02-07T06:56:26.261Z,98.71
2023-02-07T06:57:26.091Z,98.88
2023-02-07T06:58:26.035Z,99.24
2023-02-07T06:59:25.985Z,99.13
2023-02-07T07:00:25.960Z,99.03
2023-02-07T07:01:25.919Z,98.71
2023-02-07T07:02:25.866Z,98.71
2023-02-07T07:03:25.805Z,99.24
2023-02-07T07:04:25.752Z,99.24
2023-02-07T07:05:25.713Z,99.76
2023-02-07T07:06:25.662Z,98.50
2023-02-07T07:07:25.613Z,98.98
2023-02-07T07:08:25.561Z,98.77
2023-02-07T07:09:25.523Z,99.61
2023-02-07T07:10:25.517Z,99.19
2023-02-07T07:11:25.417Z,98.98
2023-02-07T07:12:25.376Z,99.99
2023-02-07T07:13:25.319Z,98.61
2023-02-07T07:14:25.277Z,99.34
2023-02-07T07:15:25.242Z,99.61
2023-02-07T07:16:25.239Z,98.29
2023-02-07T07:17:25.133Z,98.56
2023-02-07T07:18:25.101Z,98.21
2023-02-07T07:19:25.038Z,99.04
2023-02-07T07:20:25.002Z,98.52
2023-02-07T07:21:24.939Z,99.04
2023-02-07T07:22:24.901Z,99.19
2023-02-07T07:23:24.846Z,99.08
2023-02-07T07:24:24.795Z,98.77
2023-02-07T07:25:24.748Z,98.56
2023-02-07T07:26:24.713Z,98.71
2023-02-07T07:27:24.655Z,99.03
2023-02-07T07:28:24.610Z,99.51
2023-02-07T07:29:24.556Z,99.08
2023-02-07T07:30:24.515Z,99.30
2023-02-07T07:31:24.485Z,99.46
2023-02-07T07:33:24.367Z,99.00
2023-02-07T07:34:24.322Z,99.35
2023-02-07T07:35:24.271Z,99.71
2023-02-07T07:36:24.228Z,99.19
2023-02-07T07:37:24.186Z,99.51
2023-02-07T07:38:24.138Z,98.72
2023-02-07T07:39:24.086Z,99.19
2023-02-07T07:40:24.032Z,98.46
2023-02-07T07:41:23.982Z,99.19
2023-02-07T07:42:23.939Z,98.77
2023-02-07T07:43:23.882Z,98.98
2023-02-07T07:44:23.840Z,98.46
2023-02-07T07:45:23.804Z,98.72
2023-02-07T07:46:23.752Z,98.74
2023-02-07T07:47:23.692Z,99.32
2023-02-07T07:48:23.685Z,98.39
2023-02-07T07:49:23.601Z,98.83
2023-02-07T07:50:23.558Z,98.53
2023-02-07T07:51:23.536Z,97.24
2023-02-07T07:52:23.459Z,96.67
2023-02-07T07:53:23.433Z,95.48
2023-02-07T07:54:23.363Z,96.48
2023-02-07T07:55:23.323Z,96.39
2023-02-07T07:56:23.272Z,94.82
2023-02-07T07:57:23.237Z,94.41
2023-02-07T07:58:23.176Z,93.33
2023-02-07T07:59:24.293Z,93.39
2023-02-07T08:00:23.090Z,91.74
2023-02-07T08:01:23.039Z,91.41
2023-02-07T08:02:22.996Z,91.93
2023-02-07T08:03:22.967Z,93.03
2023-02-07T08:04:22.909Z,91.78
2023-02-07T08:05:22.869Z,90.70
2023-02-07T08:06:22.814Z,90.19
2023-02-07T08:07:22.766Z,88.84
2023-02-07T08:08:22.750Z,90.35
2023-02-07T08:09:22.686Z,88.44
2023-02-07T08:10:22.651Z,88.54
2023-02-07T08:11:22.591Z,88.48
2023-02-07T08:12:22.549Z,89.79
2023-02-07T08:13:22.642Z,90.17
2023-02-07T08:14:22.464Z,87.43
2023-02-07T08:15:22.416Z,87.71
2023-02-07T09:09:54.231Z,0.00
2023-02-07T09:09:54.659Z,72.19
2023-02-07T09:10:54.601Z,72.64
2023-02-07T09:11:54.525Z,71.50
2023-02-07T09:12:54.488Z,72.19
2023-02-07T09:13:54.449Z,73.05
2023-02-07T09:14:54.432Z,72.88
2023-02-07T09:15:54.372Z,72.95
2023-02-07T09:16:54.413Z,72.71
2023-02-07T09:17:54.303Z,69.55
2023-02-07T09:18:54.268Z,69.31
2023-02-07T09:19:54.221Z,68.04
2023-02-07T09:20:54.201Z,71.44
2023-02-07T09:21:54.162Z,72.71
2023-02-07T09:22:54.120Z,73.47
2023-02-07T09:23:54.076Z,73.50
2023-02-07T09:24:54.035Z,72.44
2023-02-07T09:25:54.005Z,70.68
2023-02-07T09:26:53.960Z,68.42
2023-02-07T09:27:53.943Z,69.14
2023-02-07T09:28:53.907Z,69.11
2023-02-07T09:29:53.853Z,69.17
2023-02-07T09:30:54.134Z,70.58
2023-02-07T09:31:53.868Z,69.24
2023-02-07T09:32:53.739Z,69.45
2023-02-07T09:33:53.699Z,70.44
2023-02-07T09:34:53.681Z,72.67
2023-02-07T09:35:53.628Z,71.27
2023-02-07T09:36:53.599Z,68.53
2023-02-07T09:37:53.553Z,66.94
2023-02-07T09:38:53.518Z,67.84
2023-02-07T09:39:53.483Z,66.16
2023-02-07T09:40:53.459Z,67.12
2023-02-07T09:41:53.411Z,65.44
2023-02-07T09:42:53.432Z,64.18
2023-02-07T09:43:53.457Z,64.72
2023-02-07T09:44:53.568Z,64.00
2023-02-07T09:45:53.259Z,64.21
2023-02-07T09:46:53.244Z,63.65
2023-02-07T09:47:53.187Z,65.22
2023-02-07T09:48:53.156Z,65.22
2023-02-07T09:49:53.111Z,66.46
2023-02-07T09:50:53.076Z,65.25
2023-02-07T09:51:53.039Z,66.87
2023-02-07T09:52:53.016Z,68.11
2023-02-07T09:53:52.965Z,65.92
2023-02-07T09:54:52.929Z,66.15
2023-02-07T09:55:52.894Z,66.43
2023-02-07T09:56:52.860Z,65.64
2023-02-07T09:57:52.831Z,65.12
2023-02-07T09:58:52.812Z,64.21
2023-02-07T09:59:52.755Z,62.23
2023-02-07T10:00:52.707Z,62.23
2023-02-07T10:01:52.667Z,61.40
2023-02-07T10:02:52.702Z,61.79
2023-02-07T10:03:52.600Z,62.78
2023-02-07T10:04:52.555Z,61.83
2023-02-07T10:05:52.515Z,61.70
2023-02-07T10:06:52.483Z,60.19
2023-02-07T10:07:52.449Z,59.39
2023-02-07T10:08:52.409Z,60.45
2023-02-07T10:09:52.377Z,60.99
2023-02-07T10:10:52.328Z,62.25
2023-02-07T10:11:52.331Z,64.51
2023-02-07T10:12:52.251Z,63.72
2023-02-07T10:13:52.214Z,64.92
2023-02-07T10:14:52.188Z,65.05
2023-02-07T10:15:52.165Z,66.49
2023-02-07T10:16:52.102Z,64.95
2023-02-07T10:17:52.073Z,64.98
2023-02-07T10:18:52.026Z,64.64
2023-02-07T10:19:51.988Z,63.97
2023-02-07T10:20:51.990Z,65.59
2023-02-07T10:21:51.914Z,65.05
2023-02-07T10:22:51.901Z,63.57
2023-02-07T10:23:51.837Z,63.17
2023-02-07T10:24:51.800Z,62.59
2023-02-07T10:25:51.787Z,61.84
2023-02-07T10:26:51.734Z,62.07
2023-02-07T10:27:51.718Z,63.54
2023-02-07T10:28:51.644Z,65.53
2023-02-07T10:29:51.612Z,65.33
2023-02-07T10:30:51.665Z,64.44
2023-02-07T10:31:51.572Z,63.17
2023-02-07T10:32:51.493Z,64.77
2023-02-07T10:33:51.464Z,66.42
2023-02-07T10:34:52.422Z,65.08
2023-02-07T10:35:51.379Z,65.25
2023-02-07T10:36:51.347Z,65.50
2023-02-07T10:37:51.302Z,64.21
2023-02-07T10:38:56.872Z,62.15
2023-02-07T10:39:51.253Z,62.49
2023-02-07T10:40:51.189Z,63.21
2023-02-07T10:41:51.199Z,62.23
2023-02-07T10:42:51.146Z,62.12
2023-02-07T10:43:51.078Z,62.66
2023-02-07T10:44:51.031Z,62.09
2023-02-07T10:45:57.043Z,60.31
2023-02-07T10:46:50.999Z,59.26
2023-02-07T10:47:50.921Z,59.37
2023-02-07T10:48:50.883Z,62.41
2023-02-07T10:49:50.844Z,63.06
2023-02-07T10:50:50.815Z,64.84
2023-02-07T10:51:50.767Z,65.22
2023-02-07T10:52:50.729Z,62.38
2023-02-07T10:53:55.292Z,62.25
2023-02-07T10:54:50.662Z,61.94
2023-02-07T10:55:50.620Z,63.53
2023-02-07T10:56:50.594Z,61.58
2023-02-07T10:57:54.259Z,62.23
2023-02-07T10:58:50.506Z,61.07
2023-02-07T10:59:50.480Z,59.36
2023-02-07T11:00:50.424Z,59.31
2023-02-07T11:01:50.442Z,58.33
2023-02-07T11:02:50.372Z,57.92
2023-02-07T11:03:50.310Z,56.05
2023-02-07T11:04:50.278Z,56.77
2023-02-07T11:05:50.234Z,56.41
2023-02-07T11:06:50.199Z,56.64
2023-02-07T11:07:50.179Z,57.15
2023-02-07T11:08:50.135Z,56.02
2023-02-07T11:09:50.083Z,58.34
2023-02-07T11:10:50.052Z,58.08
2023-02-07T11:11:50.009Z,57.42
2023-02-07T11:12:49.995Z,57.93
2023-02-07T11:13:49.950Z,58.98
2023-02-07T11:14:53.253Z,59.84
2023-02-07T11:15:49.886Z,59.70
2023-02-07T11:16:49.826Z,60.19
2023-02-07T11:17:49.864Z,58.73
2023-02-07T11:18:58.442Z,58.18
2023-02-07T11:19:49.710Z,57.67
2023-02-07T11:20:49.675Z,57.64
2023-02-07T11:21:49.632Z,57.90
2023-02-07T11:22:49.596Z,57.52
2023-02-07T11:23:49.559Z,58.24
2023-02-07T11:24:49.534Z,58.73
2023-02-07T11:25:49.479Z,58.31
2023-02-07T11:26:49.446Z,58.36
2023-02-07T11:27:49.430Z,57.21
2023-02-07T11:28:49.370Z,55.66
2023-02-07T11:29:49.327Z,56.54
2023-02-07T11:30:49.364Z,56.93
2023-02-07T11:31:49.335Z,57.88
2023-02-07T11:32:49.214Z,58.08
2023-02-07T11:33:49.180Z,55.93
2023-02-07T11:34:49.157Z,56.51
2023-02-07T11:35:49.118Z,54.53
2023-02-07T11:36:49.061Z,54.72
2023-02-07T11:37:49.022Z,55.51
2023-02-07T11:38:48.991Z,57.80
2023-02-07T11:39:48.943Z,57.85
2023-02-07T11:40:48.910Z,56.49
2023-02-07T11:41:48.881Z,55.98
2023-02-07T11:42:48.851Z,56.26
2023-02-07T11:43:48.796Z,57.52
2023-02-07T11:44:48.758Z,58.50
2023-02-07T11:45:48.720Z,56.10
2023-02-07T11:46:48.711Z,55.43
2023-02-07T11:47:48.666Z,53.20
2023-02-07T11:48:48.617Z,54.36
2023-02-07T11:49:48.572Z,54.66
2023-02-07T11:50:48.527Z,55.10
2023-02-07T11:51:48.491Z,55.10
2023-02-07T11:52:48.849Z,54.90
2023-02-07T11:53:48.413Z,54.49
2023-02-07T11:54:48.379Z,54.59
2023-02-07T11:55:48.350Z,53.51
2023-02-07T11:56:48.301Z,54.10
2023-02-07T11:57:48.262Z,53.56
2023-02-07T11:58:48.239Z,55.10
2023-02-07T11:59:48.189Z,54.61
2023-02-07T12:00:48.149Z,56.08
2023-02-07T12:01:48.135Z,55.87
2023-02-07T12:02:48.092Z,53.33
2023-02-07T12:03:48.050Z,55.49
2023-02-07T12:04:48.024Z,54.38
2023-02-07T12:05:47.984Z,53.30
2023-02-07T12:06:47.927Z,56.13
2023-02-07T12:07:47.888Z,55.41
2023-02-07T12:08:47.850Z,56.13
2023-02-07T12:09:47.808Z,54.87
2023-02-07T12:10:47.771Z,54.48
2023-02-07T12:11:47.752Z,55.74
2023-02-07T12:12:47.697Z,55.26
2023-02-07T12:13:47.660Z,56.39
2023-02-07T12:14:47.614Z,57.29
2023-02-07T12:15:47.578Z,56.26
2023-02-07T12:16:47.550Z,56.03
2023-02-07T12:17:47.511Z,55.28
2023-02-07T12:18:47.467Z,54.74
2023-02-07T12:19:47.427Z,52.97
2023-02-07T12:20:47.393Z,51.60
2023-02-07T12:21:47.353Z,52.34
2023-02-07T12:22:58.719Z,53.09
2023-02-07T12:23:47.272Z,52.76
2023-02-07T12:24:47.229Z,52.94
2023-02-07T12:25:47.197Z,52.19
2023-02-07T12:26:47.186Z,51.55
2023-02-07T12:27:47.145Z,52.04
2023-02-07T12:28:47.084Z,50.27
2023-02-07T12:29:47.049Z,50.06
2023-02-07T12:30:47.045Z,50.56
2023-02-07T12:31:47.026Z,50.14
2023-02-07T12:32:47.032Z,50.02
2023-02-07T12:33:46.882Z,50.14
2023-02-07T12:34:46.841Z,50.86
2023-02-07T12:35:56.846Z,51.53
2023-02-07T12:36:46.771Z,51.65
2023-02-07T12:37:46.732Z,53.45
2023-02-07T12:38:46.697Z,53.78
2023-02-07T12:39:46.650Z,53.45
2023-02-07T12:40:46.620Z,54.05
2023-02-07T12:41:46.574Z,52.58
2023-02-07T12:42:46.552Z,53.30
2023-02-07T12:43:46.516Z,52.69
2023-02-07T12:44:46.458Z,53.20
2023-02-07T12:45:46.473Z,53.86
2023-02-07T12:46:46.381Z,55.00
2023-02-07T12:47:46.341Z,54.92
2023-02-07T12:48:46.325Z,55.05
2023-02-07T12:49:46.281Z,55.69
2023-02-07T12:50:46.225Z,56.73
2023-02-07T12:51:46.191Z,55.51
2023-02-07T12:52:46.144Z,55.62
2023-02-07T12:53:46.120Z,56.13
2023-02-07T12:54:46.075Z,53.86
2023-02-07T12:55:46.038Z,54.69
2023-02-07T12:56:45.987Z,55.82
2023-02-07T12:57:45.951Z,53.76
2023-02-07T12:58:45.912Z,53.99
2023-02-07T12:59:45.872Z,55.23
2023-02-07T13:00:45.971Z,55.33
2023-02-07T13:01:45.794Z,55.64
2023-02-07T13:02:45.750Z,55.85
2023-02-07T13:03:45.718Z,54.69
2023-02-07T13:04:45.674Z,55.02
2023-02-07T13:05:45.633Z,55.13
2023-02-07T13:06:45.602Z,54.79
2023-02-07T13:07:45.558Z,55.43
2023-02-07T13:08:45.519Z,55.20
2023-02-07T13:09:45.509Z,55.93
2023-02-07T13:10:45.437Z,55.72
2023-02-07T13:11:45.398Z,55.72
2023-02-07T13:12:45.367Z,55.72
2023-02-07T13:13:45.319Z,56.03
2023-02-07T13:14:45.278Z,56.23
2023-02-07T13:15:45.244Z,56.54
2023-02-07T13:16:45.276Z,56.54
2023-02-07T13:17:45.157Z,56.16
2023-02-07T13:18:45.128Z,56.77
2023-02-07T13:19:45.080Z,57.29
2023-02-07T13:20:45.038Z,57.40
2023-02-07T13:21:45.002Z,56.77
2023-02-07T13:22:44.956Z,56.57
2023-02-07T13:23:44.920Z,57.81
2023-02-07T13:24:44.888Z,57.09
2023-02-07T13:25:44.836Z,58.20
2023-02-07T13:26:44.807Z,57.99
2023-02-07T13:27:44.809Z,57.70
2023-02-07T13:28:44.705Z,57.60
2023-02-07T13:29:44.675Z,57.50
2023-02-07T13:30:44.656Z,56.26
2023-02-07T13:31:44.662Z,56.96
2023-02-07T13:32:44.563Z,55.95
2023-02-07T13:33:44.496Z,56.88
2023-02-07T13:34:44.454Z,57.50
2023-02-07T13:35:44.419Z,57.19
2023-02-07T13:36:44.373Z,56.67
2023-02-07T13:37:44.341Z,56.26
2023-02-07T13:38:44.290Z,56.85
2023-02-07T13:39:44.249Z,56.13
2023-02-07T13:40:44.220Z,55.82
2023-02-07T13:41:44.162Z,55.41
2023-02-07T13:42:44.122Z,55.00
2023-02-07T13:43:44.086Z,55.23
2023-02-07T13:44:44.034Z,55.02
2023-02-07T13:45:44.034Z,54.79